Time;durP1;ratioP1;P1;durP2;ratioP2;P2;SDS_P1;SDS_P2;PMS_P1;PMS_P2;Temp;Humidity;BMP_temperature;BMP_pressure;BME280_temperature;BME280_humidity;BME280_pressure;Samples;Min_cycle;Max_cycle;Signal;HPM_P1;HPM_P2
2022/06/26 00:01:26;;;;;;;2.78;2.47;;;24.90;98.20;;;;;;6149886;28;82986;-66
2022/06/26 00:04:29;;;;;;;2.65;2.45;;;24.90;98.20;;;;;;6139615;28;82943;-66
2022/06/26 00:07:31;;;;;;;3.05;2.75;;;24.90;98.10;;;;;;6147240;28;84039;-66
2022/06/26 00:10:33;;;;;;;2.55;2.35;;;24.90;98.10;;;;;;6150990;28;83247;-66
2022/06/26 00:13:36;;;;;;;2.80;2.60;;;24.90;98.10;;;;;;6160761;28;84045;-66
2022/06/26 00:16:38;;;;;;;3.22;2.92;;;24.90;98.10;;;;;;6155633;28;84280;-66
2022/06/26 00:19:41;;;;;;;3.30;3.00;;;24.90;98.20;;;;;;6145081;28;85284;-66
2022/06/26 00:22:43;;;;;;;3.28;2.92;;;24.90;98.10;;;;;;6141997;28;84133;-66
2022/06/26 00:25:45;;;;;;;3.40;3.10;;;24.90;98.10;;;;;;6158714;28;84062;-66
2022/06/26 00:28:47;;;;;;;3.40;3.10;;;24.90;98.10;;;;;;6149306;28;84111;-66
2022/06/26 00:31:49;;;;;;;3.58;3.28;;;24.90;98.10;;;;;;6157254;28;84223;-66
2022/06/26 00:34:52;;;;;;;3.50;3.20;;;24.90;98.20;;;;;;6161655;28;84077;-66
2022/06/26 00:37:54;;;;;;;3.38;3.08;;;24.90;98.10;;;;;;6162661;28;84055;-66
2022/06/26 00:40:57;;;;;;;3.40;3.10;;;24.90;98.20;;;;;;6150974;28;83301;-66
2022/06/26 00:43:59;;;;;;;3.20;2.90;;;24.90;98.10;;;;;;6147510;28;84014;-66
2022/06/26 00:47:01;;;;;;;3.10;2.90;;;24.90;98.10;;;;;;6157292;28;84049;-66
2022/06/26 00:50:07;;;;;;;3.20;2.90;;;24.90;98.10;;;;;;6160795;28;84841;-66
2022/06/26 00:53:09;;;;;;;3.80;3.50;;;24.90;98.10;;;;;;6155687;28;84030;-66
2022/06/26 00:56:11;;;;;;;3.47;3.17;;;24.90;98.10;;;;;;6155488;28;84011;-66
2022/06/26 00:59:15;;;;;;;3.65;3.35;;;24.90;98.00;;;;;;6138015;28;84197;-66
2022/06/26 01:02:17;;;;;;;3.78;3.38;;;24.90;98.00;;;;;;6137335;28;84029;-66
2022/06/26 01:05:20;;;;;;;3.80;3.42;;;24.90;98.00;;;;;;6140908;28;84075;-66
2022/06/26 01:08:22;;;;;;;3.70;3.40;;;24.90;98.00;;;;;;6153702;28;84123;-66
2022/06/26 01:11:25;;;;;;;3.80;3.50;;;24.90;98.00;;;;;;6151010;28;83434;-66
2022/06/26 01:14:27;;;;;;;3.70;3.40;;;24.90;98.00;;;;;;6157223;28;85149;-66
2022/06/26 01:17:29;;;;;;;3.90;3.38;;;24.90;98.00;;;;;;6146924;28;84040;-66
2022/06/26 01:20:32;;;;;;;3.65;3.35;;;24.80;97.90;;;;;;6149220;28;84975;-66
2022/06/26 01:23:36;;;;;;;3.67;3.38;;;24.90;97.90;;;;;;6142546;28;84077;-66
2022/06/26 01:26:40;;;;;;;3.42;3.13;;;24.80;98.10;;;;;;6142208;28;84077;-66
2022/06/26 01:29:42;;;;;;;3.25;2.95;;;24.80;98.00;;;;;;6152204;28;84054;-66
2022/06/26 01:32:44;;;;;;;3.80;3.50;;;24.90;98.00;;;;;;6144971;28;84030;-66
2022/06/26 01:35:46;;;;;;;3.83;3.50;;;24.90;98.10;;;;;;6136849;28;84127;-66
2022/06/26 01:38:49;;;;;;;3.60;3.30;;;24.80;98.00;;;;;;6148496;28;84030;-66
2022/06/26 01:41:51;;;;;;;3.75;3.45;;;24.80;97.90;;;;;;6137010;28;83348;-66
2022/06/26 01:44:53;;;;;;;4.15;3.75;;;24.90;97.90;;;;;;6156193;28;84362;-66
2022/06/26 01:47:55;;;;;;;4.00;3.63;;;24.90;97.80;;;;;;6159614;28;84118;-66
2022/06/26 01:50:59;;;;;;;3.72;3.42;;;24.90;97.80;;;;;;6139572;28;84999;-66
2022/06/26 01:54:02;;;;;;;3.90;3.60;;;24.90;97.80;;;;;;6138592;28;84123;-66
2022/06/26 01:57:05;;;;;;;4.05;3.65;;;24.80;97.90;;;;;;6156311;28;83359;-66
2022/06/26 02:00:08;;;;;;;4.13;3.72;;;24.90;97.90;;;;;;6136592;28;84507;-66
2022/06/26 02:03:11;;;;;;;3.80;3.50;;;24.90;98.00;;;;;;6137221;28;84636;-66
2022/06/26 02:06:13;;;;;;;4.25;3.80;;;24.80;98.00;;;;;;6148367;28;83961;-66
2022/06/26 02:15:52;;;;;;;3.90;3.40;;;24.80;97.80;;;;;;6146447;28;82109;-66
2022/06/26 02:18:56;;;;;;;3.63;3.33;;;24.80;97.80;;;;;;6138337;28;87105;-66
2022/06/26 02:21:58;;;;;;;3.90;3.55;;;24.80;98.00;;;;;;6156938;28;83901;-66
2022/06/26 02:25:02;;;;;;;3.67;3.38;;;24.90;98.00;;;;;;6156414;28;85648;-67
2022/06/26 02:28:05;;;;;;;3.70;3.35;;;24.90;97.90;;;;;;6157784;28;84038;-66
2022/06/26 02:31:07;;;;;;;3.97;3.58;;;24.80;97.80;;;;;;6135642;28;84102;-66
2022/06/26 02:34:09;;;;;;;3.75;3.45;;;24.90;97.80;;;;;;6147928;28;84216;-66
2022/06/26 02:37:11;;;;;;;3.60;3.30;;;24.90;97.70;;;;;;6146102;28;84058;-66
2022/06/26 02:40:15;;;;;;;3.60;3.30;;;24.90;97.70;;;;;;6150889;28;83281;-67
2022/06/26 02:43:18;;;;;;;3.97;3.58;;;24.90;97.70;;;;;;6136342;28;83351;-67
2022/06/26 02:46:20;;;;;;;3.70;3.35;;;24.90;97.70;;;;;;6139346;28;84132;-66
2022/06/26 02:49:22;;;;;;;4.22;3.83;;;24.80;97.70;;;;;;6135115;28;84206;-66
2022/06/26 02:52:24;;;;;;;3.90;3.50;;;24.80;97.70;;;;;;6136394;28;83849;-66
2022/06/26 02:55:27;;;;;;;4.18;3.25;;;24.80;97.80;;;;;;6148630;28;84292;-66
2022/06/26 02:58:29;;;;;;;3.50;3.20;;;24.90;97.80;;;;;;6148164;28;84042;-66
2022/06/26 03:01:31;;;;;;;4.47;3.50;;;24.80;97.70;;;;;;6149243;28;83968;-66
2022/06/26 03:04:33;;;;;;;3.45;3.15;;;24.90;97.80;;;;;;6156297;28;84040;-66
2022/06/26 03:07:35;;;;;;;3.38;3.08;;;24.80;97.80;;;;;;6156973;28;83257;-66
2022/06/26 03:10:38;;;;;;;3.70;3.40;;;24.90;97.80;;;;;;6142210;28;84191;-66
2022/06/26 03:13:40;;;;;;;3.47;3.17;;;24.80;97.60;;;;;;6139947;28;83378;-66
2022/06/26 03:16:42;;;;;;;3.55;3.25;;;24.80;97.60;;;;;;6136537;28;84004;-66
2022/06/26 03:19:44;;;;;;;3.80;3.50;;;24.90;97.50;;;;;;6138678;28;84392;-66
2022/06/26 03:22:46;;;;;;;3.60;3.30;;;24.80;97.40;;;;;;6151542;28;84982;-66
2022/06/26 03:25:50;;;;;;;3.88;3.30;;;24.80;97.50;;;;;;6150774;28;83997;-66
2022/06/26 03:28:52;;;;;;;3.83;3.53;;;24.80;97.50;;;;;;6153482;28;84143;-66
2022/06/26 03:31:55;;;;;;;3.47;3.17;;;24.90;97.60;;;;;;6143981;28;85033;-66
2022/06/26 03:34:57;;;;;;;3.60;3.30;;;24.80;97.80;;;;;;6155502;28;82998;-66
2022/06/26 03:37:59;;;;;;;4.15;3.47;;;24.90;97.80;;;;;;6146687;28;84328;-66
2022/06/26 03:41:02;;;;;;;3.60;3.30;;;24.80;97.60;;;;;;6145447;28;84157;-66
2022/06/26 03:44:06;;;;;;;3.55;3.25;;;24.80;97.80;;;;;;6156160;28;83519;-66
2022/06/26 03:47:08;;;;;;;3.60;3.30;;;24.80;97.60;;;;;;6152023;28;85475;-66
2022/06/26 03:50:10;;;;;;;3.50;3.15;;;24.80;97.60;;;;;;6158713;28;82918;-66
2022/06/26 03:53:12;;;;;;;3.50;3.20;;;24.80;97.80;;;;;;6148814;28;85063;-66
2022/06/26 03:56:15;;;;;;;3.53;3.22;;;24.90;97.80;;;;;;6141078;28;84302;-66
2022/06/26 03:59:17;;;;;;;3.65;3.30;;;24.90;97.70;;;;;;6150417;28;84522;-66
2022/06/26 04:02:19;;;;;;;3.58;3.17;;;24.80;97.60;;;;;;6154211;28;84007;-66
2022/06/26 04:05:22;;;;;;;4.55;3.95;;;24.90;97.50;;;;;;6146344;28;85101;-66
2022/06/26 04:08:24;;;;;;;3.58;3.28;;;24.80;97.40;;;;;;6137131;28;84065;-66
2022/06/26 04:11:27;;;;;;;3.53;3.22;;;24.80;97.50;;;;;;6138320;28;83239;-66
2022/06/26 04:14:29;;;;;;;3.67;3.38;;;24.90;97.50;;;;;;6145143;28;83281;-66
2022/06/26 04:17:31;;;;;;;4.10;3.42;;;24.80;97.50;;;;;;6140938;28;83285;-66
2022/06/26 04:20:34;;;;;;;3.50;3.20;;;24.80;97.50;;;;;;6146032;28;84076;-66
2022/06/26 04:23:36;;;;;;;3.45;3.15;;;24.80;97.50;;;;;;6143443;28;85131;-66
2022/06/26 04:26:39;;;;;;;3.30;3.00;;;24.80;97.60;;;;;;6156868;28;84041;-66
2022/06/26 04:29:42;;;;;;;3.40;3.10;;;24.90;97.70;;;;;;6148871;28;84058;-66
2022/06/26 04:32:44;;;;;;;3.60;3.30;;;24.90;97.80;;;;;;6152934;28;84521;-66
2022/06/26 04:35:45;;;;;;;3.50;3.20;;;24.90;97.80;;;;;;6149590;28;84527;-66
2022/06/26 04:38:47;;;;;;;3.70;3.40;;;24.80;97.80;;;;;;6152564;28;84397;-66
2022/06/26 04:41:51;;;;;;;3.55;3.20;;;24.90;97.80;;;;;;6144897;28;84085;-66
2022/06/26 04:44:53;;;;;;;4.13;3.72;;;24.80;97.70;;;;;;6149754;28;83396;-66
2022/06/26 04:47:55;;;;;;;3.40;3.10;;;24.90;97.70;;;;;;6143727;28;85501;-66
2022/06/26 04:50:57;;;;;;;3.72;3.42;;;24.90;97.60;;;;;;6143111;28;82925;-66
2022/06/26 04:53:59;;;;;;;4.25;3.83;;;24.90;97.60;;;;;;6145164;28;84912;-66
2022/06/26 04:57:02;;;;;;;3.90;3.50;;;24.90;97.60;;;;;;6137836;28;84036;-66
2022/06/26 05:00:06;;;;;;;3.70;3.40;;;24.90;97.60;;;;;;6147317;28;84123;-66
2022/06/26 05:03:08;;;;;;;4.20;3.80;;;24.90;97.50;;;;;;6149365;28;84034;-66
2022/06/26 05:06:10;;;;;;;4.30;3.90;;;24.90;97.50;;;;;;6146867;28;84118;-66
2022/06/26 05:09:12;;;;;;;3.72;3.42;;;24.90;97.50;;;;;;6137766;28;84437;-66
2022/06/26 05:12:15;;;;;;;3.67;3.38;;;24.90;97.50;;;;;;6137021;28;84116;-66
2022/06/26 05:15:19;;;;;;;3.90;3.55;;;24.90;97.50;;;;;;6138324;28;83630;-66
2022/06/26 05:18:21;;;;;;;3.78;3.33;;;24.90;97.60;;;;;;6148461;28;84168;-66
2022/06/26 05:21:24;;;;;;;3.97;3.60;;;24.90;97.60;;;;;;6143241;28;84061;-66
2022/06/26 05:24:26;;;;;;;4.20;3.78;;;24.90;97.60;;;;;;6142201;28;85398;-66
2022/06/26 05:27:29;;;;;;;3.80;3.50;;;24.90;97.60;;;;;;6152264;28;84097;-66
2022/06/26 05:30:31;;;;;;;4.22;3.55;;;24.90;97.60;;;;;;6145853;28;83399;-66
2022/06/26 05:33:33;;;;;;;3.63;3.33;;;25.00;97.60;;;;;;6155995;28;83263;-67
2022/06/26 05:36:35;;;;;;;4.07;3.55;;;24.90;97.60;;;;;;6148647;28;84105;-66
2022/06/26 05:39:37;;;;;;;4.57;4.10;;;24.90;97.60;;;;;;6134801;28;84199;-66
2022/06/26 05:42:40;;;;;;;3.88;3.55;;;24.90;97.60;;;;;;6149184;28;84019;-66
2022/06/26 05:45:42;;;;;;;3.83;3.50;;;24.90;97.70;;;;;;6136799;28;83225;-66
2022/06/26 05:48:44;;;;;;;4.18;3.33;;;25.00;97.70;;;;;;6136095;28;84078;-67
2022/06/26 05:51:46;;;;;;;4.15;3.50;;;25.00;97.80;;;;;;6135882;28;84118;-66
2022/06/26 05:54:48;;;;;;;3.72;3.42;;;24.90;97.70;;;;;;6141410;28;85007;-66
2022/06/26 05:57:52;;;;;;;3.75;3.42;;;25.00;97.80;;;;;;6153563;28;84060;-66
2022/06/26 06:00:54;;;;;;;4.47;3.80;;;24.90;97.80;;;;;;6137918;28;84145;-66
2022/06/26 06:03:56;;;;;;;3.70;3.40;;;25.00;97.90;;;;;;6144499;28;84062;-66
2022/06/26 06:06:58;;;;;;;4.07;3.72;;;25.00;97.90;;;;;;6135774;28;84061;-67
2022/06/26 06:10:00;;;;;;;4.47;3.90;;;25.00;97.90;;;;;;6135173;28;83939;-66
2022/06/26 06:13:03;;;;;;;4.57;3.70;;;25.00;97.80;;;;;;6152082;28;84337;-66
2022/06/26 06:16:06;;;;;;;3.90;3.60;;;25.00;97.80;;;;;;6138816;28;83338;-65
2022/06/26 06:19:08;;;;;;;3.90;3.60;;;25.00;97.80;;;;;;6144481;28;84291;-66
2022/06/26 06:22:10;;;;;;;4.60;3.72;;;25.00;97.80;;;;;;6135919;28;84272;-66
2022/06/26 06:25:13;;;;;;;4.03;3.72;;;25.10;97.80;;;;;;6140067;28;85029;-66
2022/06/26 06:28:18;;;;;;;4.63;4.10;;;25.00;97.80;;;;;;6158091;28;84209;-66
2022/06/26 06:31:20;;;;;;;4.57;4.18;;;25.10;97.90;;;;;;6147133;28;84040;-66
2022/06/26 06:34:22;;;;;;;4.28;3.88;;;25.00;97.80;;;;;;6148549;28;84277;-66
2022/06/26 06:37:24;;;;;;;4.57;4.15;;;25.00;97.90;;;;;;6147816;28;84167;-66
2022/06/26 06:40:26;;;;;;;4.30;3.90;;;25.00;97.90;;;;;;6137173;28;84134;-66
2022/06/26 06:43:30;;;;;;;4.30;3.90;;;25.10;97.90;;;;;;6147820;28;83008;-66
2022/06/26 06:46:32;;;;;;;4.57;4.13;;;25.00;97.90;;;;;;6135916;28;82523;-66
2022/06/26 06:49:34;;;;;;;4.60;4.20;;;25.00;97.90;;;;;;6134303;28;83329;-66
2022/06/26 06:52:36;;;;;;;6.47;4.10;;;25.00;98.00;;;;;;6138940;28;84055;-67
2022/06/26 06:55:38;;;;;;;4.82;4.43;;;25.10;97.90;;;;;;6162828;28;84980;-67
2022/06/26 06:58:41;;;;;;;4.60;4.20;;;25.10;97.90;;;;;;6140007;28;84196;-67
2022/06/26 07:01:43;;;;;;;4.70;4.30;;;25.10;97.80;;;;;;6145254;28;84089;-66
2022/06/26 07:04:45;;;;;;;4.93;4.45;;;25.10;97.80;;;;;;6143857;28;84070;-66
2022/06/26 07:07:48;;;;;;;5.03;4.57;;;25.10;97.80;;;;;;6138550;28;83965;-66
2022/06/26 07:10:50;;;;;;;4.38;3.97;;;25.10;97.80;;;;;;6138727;28;84071;-67
2022/06/26 07:13:53;;;;;;;4.43;4.03;;;25.10;97.80;;;;;;6152587;28;82847;-66
2022/06/26 07:16:55;;;;;;;5.20;4.70;;;25.10;97.80;;;;;;6145609;28;82968;-66
2022/06/26 07:19:58;;;;;;;5.10;4.70;;;25.10;97.80;;;;;;6145566;28;84918;-66
2022/06/26 07:23:00;;;;;;;4.45;4.05;;;25.10;97.90;;;;;;6140991;28;84030;-67
2022/06/26 07:26:02;;;;;;;4.82;4.40;;;25.10;97.80;;;;;;6152174;28;85303;-67
2022/06/26 07:29:05;;;;;;;5.20;4.72;;;25.10;97.90;;;;;;6152017;28;82938;-66
2022/06/26 07:32:08;;;;;;;4.78;4.32;;;25.00;97.90;;;;;;6138419;28;84008;-66
2022/06/26 07:35:10;;;;;;;4.75;4.35;;;25.10;97.90;;;;;;6138030;28;84174;-67
2022/06/26 07:38:12;;;;;;;4.70;4.30;;;25.10;97.90;;;;;;6141579;28;84373;-66
2022/06/26 07:41:14;;;;;;;5.25;4.75;;;25.10;97.90;;;;;;6148640;28;83980;-66
2022/06/26 07:44:17;;;;;;;5.00;4.50;;;25.10;97.90;;;;;;6149069;28;84056;-66
2022/06/26 07:47:19;;;;;;;4.88;4.47;;;25.10;98.00;;;;;;6150809;28;83150;-66
2022/06/26 07:50:21;;;;;;;5.25;4.75;;;25.10;97.90;;;;;;6138570;28;83804;-66
2022/06/26 07:53:23;;;;;;;4.78;4.38;;;25.10;97.90;;;;;;6142436;28;84055;-66
2022/06/26 07:56:25;;;;;;;4.90;4.50;;;25.10;97.90;;;;;;6155025;28;86749;-66
2022/06/26 07:59:29;;;;;;;4.78;4.38;;;25.10;97.90;;;;;;6147692;28;85618;-66
2022/06/26 08:02:31;;;;;;;5.03;4.63;;;25.10;97.90;;;;;;6143787;28;84398;-66
2022/06/26 08:05:34;;;;;;;5.00;4.50;;;25.10;97.90;;;;;;6148947;28;84074;-67
2022/06/26 08:08:37;;;;;;;4.82;4.43;;;25.10;97.90;;;;;;6138584;28;84065;-67
2022/06/26 08:11:39;;;;;;;5.07;4.68;;;25.10;97.90;;;;;;6138061;28;84043;-67
2022/06/26 08:14:42;;;;;;;4.93;4.50;;;25.10;97.90;;;;;;6140359;28;84066;-66
2022/06/26 08:17:44;;;;;;;4.60;4.20;;;25.10;98.00;;;;;;6146065;28;83334;-66
2022/06/26 08:20:46;;;;;;;4.50;4.10;;;25.10;98.00;;;;;;6151367;28;84043;-67
2022/06/26 08:23:48;;;;;;;4.80;4.40;;;25.10;98.00;;;;;;6145426;28;84110;-66
2022/06/26 08:26:50;;;;;;;5.20;4.70;;;25.10;98.00;;;;;;6156513;28;85039;-66
2022/06/26 08:29:54;;;;;;;4.97;4.53;;;25.10;98.00;;;;;;6147484;28;84490;-66
2022/06/26 08:32:58;;;;;;;4.75;4.25;;;25.10;98.00;;;;;;6138543;28;82926;-67
2022/06/26 08:36:00;;;;;;;4.63;4.22;;;25.10;98.00;;;;;;6139277;28;84113;-66
2022/06/26 08:39:02;;;;;;;4.80;4.40;;;25.20;98.00;;;;;;6137342;28;84050;-66
2022/06/26 08:42:06;;;;;;;4.38;3.97;;;25.10;97.90;;;;;;6143622;28;84098;-66
2022/06/26 08:45:10;;;;;;;4.80;4.40;;;25.10;98.00;;;;;;6159221;28;84045;-66
2022/06/26 08:48:16;;;;;;;4.85;4.43;;;25.10;98.00;;;;;;6147193;28;83331;-66
2022/06/26 08:51:19;;;;;;;4.78;4.38;;;25.10;98.00;;;;;;6148302;28;84039;-67
2022/06/26 08:54:21;;;;;;;5.15;4.65;;;25.10;98.00;;;;;;6145730;28;84457;-66
2022/06/26 08:57:24;;;;;;;5.45;4.95;;;25.10;98.00;;;;;;6136037;28;85063;-67
2022/06/26 09:00:29;;;;;;;4.97;4.57;;;25.10;98.00;;;;;;6139043;28;83713;-67
2022/06/26 09:03:33;;;;;;;4.50;4.10;;;25.10;98.00;;;;;;6144241;28;84140;-66
2022/06/26 09:06:36;;;;;;;4.95;4.55;;;25.10;98.10;;;;;;6151827;28;83685;-67
2022/06/26 09:09:40;;;;;;;4.57;4.18;;;25.10;98.10;;;;;;6146169;28;84056;-66
2022/06/26 09:12:42;;;;;;;4.97;4.47;;;25.10;98.10;;;;;;6151242;28;83415;-67
2022/06/26 09:15:50;;;;;;;4.63;4.22;;;25.10;98.10;;;;;;6145682;28;82624;-67
2022/06/26 09:18:52;;;;;;;5.05;4.55;;;25.10;98.10;;;;;;6149939;28;83675;-66
2022/06/26 09:22:09;;;;;;;4.70;4.30;;;25.10;98.10;;;;;;6136396;28;84499;-67
2022/06/26 09:25:11;;;;;;;4.57;4.18;;;25.10;98.10;;;;;;6137138;28;84101;-67
2022/06/26 09:28:15;;;;;;;4.68;4.28;;;25.10;98.10;;;;;;6149903;28;85170;-66
2022/06/26 09:31:22;;;;;;;4.82;4.43;;;25.10;98.10;;;;;;6136544;28;83052;-67
2022/06/26 09:34:26;;;;;;;4.50;4.10;;;25.10;98.10;;;;;;6136812;28;84072;-67
2022/06/26 09:37:35;;;;;;;4.40;4.00;;;25.10;98.00;;;;;;6146678;28;82919;-66
2022/06/26 09:40:45;;;;;;;4.63;4.22;;;25.10;98.00;;;;;;6137179;28;84080;-67
2022/06/26 09:43:47;;;;;;;4.45;4.05;;;25.10;98.00;;;;;;6158296;28;82912;-67
2022/06/26 09:46:51;;;;;;;4.93;4.05;;;25.10;98.00;;;;;;6151536;28;84605;-67
2022/06/26 09:49:55;;;;;;;4.18;3.88;;;25.10;98.00;;;;;;6155203;28;83314;-67
2022/06/26 09:52:58;;;;;;;4.32;3.92;;;25.10;98.00;;;;;;6139654;28;82839;-67
2022/06/26 09:56:01;;;;;;;4.65;4.25;;;25.10;98.10;;;;;;6135414;28;84071;-67
2022/06/26 09:59:03;;;;;;;4.70;4.30;;;25.10;98.20;;;;;;6149520;28;85036;-67
2022/06/26 10:08:51;;;;;;;4.35;3.95;;;25.10;98.30;;;;;;6124078;28;82138;-67
2022/06/26 10:11:54;;;;;;;4.53;4.13;;;25.10;98.30;;;;;;6134284;28;84205;-67
2022/06/26 10:14:57;;;;;;;4.10;3.80;;;25.10;98.30;;;;;;6136963;28;84448;-66
2022/06/26 10:18:29;;;;;;;4.13;3.72;;;25.10;98.30;;;;;;6159804;28;84020;-67
2022/06/26 10:21:37;;;;;;;4.53;4.13;;;25.10;98.30;;;;;;6146780;28;83715;-67
2022/06/26 10:24:52;;;;;;;4.00;3.67;;;25.10;98.30;;;;;;6149305;28;84136;-67
2022/06/26 10:27:55;;;;;;;4.32;4.00;;;25.10;98.30;;;;;;6151915;28;84161;-67
2022/06/26 10:31:07;;;;;;;4.03;3.70;;;25.10;98.30;;;;;;6139543;28;85052;-67
2022/06/26 10:34:16;;;;;;;4.30;3.90;;;25.10;98.30;;;;;;6149021;28;84371;-67
2022/06/26 10:37:18;;;;;;;4.13;3.83;;;25.10;98.30;;;;;;6154063;28;83975;-66
2022/06/26 10:43:49;;;;;;;4.35;3.95;;;25.10;98.30;;;;;;6140685;28;82784;-66
2022/06/26 10:46:56;;;;;;;3.97;3.67;;;25.10;98.40;;;;;;6138680;28;84076;-67
2022/06/26 10:50:00;;;;;;;4.05;3.75;;;25.10;98.50;;;;;;6150971;28;83989;-67
2022/06/26 10:53:20;;;;;;;4.38;3.97;;;25.10;98.40;;;;;;6147302;28;83353;-67
2022/06/26 10:56:23;;;;;;;4.50;4.10;;;25.10;98.40;;;;;;6153560;28;84068;-67
2022/06/26 10:59:25;;;;;;;3.95;3.60;;;25.10;98.40;;;;;;6139796;28;83732;-66
2022/06/26 11:02:34;;;;;;;3.70;3.40;;;25.10;98.40;;;;;;6151082;28;84925;-67
2022/06/26 11:05:37;;;;;;;4.18;3.85;;;25.10;98.40;;;;;;6139337;28;84430;-67
2022/06/26 11:08:43;;;;;;;4.25;3.85;;;25.10;98.40;;;;;;6152591;28;84258;-66
2022/06/26 11:11:52;;;;;;;4.00;3.70;;;25.10;98.40;;;;;;6160782;28;84309;-67
2022/06/26 11:14:54;;;;;;;3.92;3.63;;;25.10;98.40;;;;;;6142817;28;83950;-67
2022/06/26 11:17:57;;;;;;;3.80;3.50;;;25.10;98.40;;;;;;6141852;28;84071;-67
2022/06/26 11:21:02;;;;;;;3.95;3.65;;;25.10;98.40;;;;;;6155940;28;82596;-67
2022/06/26 11:24:04;;;;;;;3.92;3.63;;;25.10;98.40;;;;;;6153414;28;83330;-67
2022/06/26 11:27:06;;;;;;;4.15;3.75;;;25.10;98.50;;;;;;6143783;28;84026;-67
2022/06/26 11:30:10;;;;;;;3.55;3.25;;;25.10;98.50;;;;;;6145930;28;84369;-67
2022/06/26 11:33:13;;;;;;;3.80;3.50;;;25.10;98.50;;;;;;6137644;28;83761;-67
2022/06/26 11:36:17;;;;;;;3.78;3.47;;;25.10;98.50;;;;;;6138078;28;84055;-67
2022/06/26 11:39:20;;;;;;;3.55;3.25;;;25.10;98.50;;;;;;6139031;28;83969;-67
2022/06/26 11:42:22;;;;;;;4.00;3.70;;;25.10;98.50;;;;;;6139304;28;82568;-67
2022/06/26 11:45:26;;;;;;;3.63;3.33;;;25.10;98.50;;;;;;6138503;28;82814;-67
2022/06/26 11:48:29;;;;;;;4.30;3.90;;;25.10;98.50;;;;;;6157513;28;82885;-67
2022/06/26 11:51:33;;;;;;;3.80;3.50;;;25.10;98.50;;;;;;6145113;28;84081;-67
2022/06/26 11:54:35;;;;;;;3.97;3.67;;;25.10;98.40;;;;;;6146061;28;83252;-67
2022/06/26 11:57:38;;;;;;;3.67;3.38;;;25.10;98.50;;;;;;6142519;28;84787;-67
2022/06/26 12:00:40;;;;;;;3.50;3.20;;;25.10;98.50;;;;;;6154369;28;84020;-67
2022/06/26 12:03:53;;;;;;;3.80;3.50;;;25.10;98.50;;;;;;6144368;28;85000;-67
2022/06/26 12:06:56;;;;;;;3.47;3.20;;;25.10;98.50;;;;;;6146639;28;84120;-67
2022/06/26 12:09:58;;;;;;;3.50;3.20;;;25.10;98.40;;;;;;6147337;28;83410;-67
2022/06/26 12:13:02;;;;;;;3.72;3.42;;;25.10;98.50;;;;;;6149167;28;83067;-67
2022/06/26 12:16:06;;;;;;;3.63;3.33;;;25.10;98.70;;;;;;6148976;28;84435;-67
2022/06/26 12:19:08;;;;;;;3.67;3.38;;;25.10;98.50;;;;;;6146994;28;84482;-67
2022/06/26 12:22:11;;;;;;;3.55;3.25;;;25.10;98.50;;;;;;6153349;28;84013;-67
2022/06/26 12:25:23;;;;;;;3.58;3.28;;;25.10;98.50;;;;;;6139720;28;82217;-67
2022/06/26 12:28:25;;;;;;;3.55;3.25;;;25.10;98.50;;;;;;6150984;28;84141;-67
2022/06/26 12:31:28;;;;;;;4.10;3.70;;;25.10;98.40;;;;;;6150949;28;84122;-67
2022/06/26 12:34:30;;;;;;;3.33;3.03;;;25.10;98.40;;;;;;6137918;28;85073;-67
2022/06/26 12:37:33;;;;;;;3.70;3.40;;;25.10;98.40;;;;;;6148638;28;84077;-67
2022/06/26 12:40:35;;;;;;;3.50;3.03;;;25.10;98.40;;;;;;6138918;28;84128;-67
2022/06/26 12:43:37;;;;;;;3.40;3.10;;;25.10;98.40;;;;;;6139049;28;84386;-67
2022/06/26 12:46:39;;;;;;;3.60;3.30;;;25.10;98.30;;;;;;6138607;28;84189;-67
2022/06/26 12:49:41;;;;;;;3.75;3.45;;;25.10;98.30;;;;;;6148583;28;84050;-67
2022/06/26 12:52:44;;;;;;;3.15;2.88;;;25.10;98.30;;;;;;6142177;28;84039;-67
2022/06/26 12:55:46;;;;;;;3.50;3.20;;;25.10;98.20;;;;;;6148674;28;83718;-67
2022/06/26 12:58:49;;;;;;;3.78;3.42;;;25.10;98.20;;;;;;6144868;28;84114;-67
2022/06/26 13:01:51;;;;;;;3.63;3.33;;;25.10;98.20;;;;;;6141285;28;84037;-67
2022/06/26 13:04:53;;;;;;;3.35;3.05;;;25.10;98.20;;;;;;6136491;28;84951;-67
2022/06/26 13:07:56;;;;;;;3.47;3.17;;;25.10;98.20;;;;;;6144433;28;82844;-67
2022/06/26 13:11:22;;;;;;;3.30;3.00;;;25.10;98.20;;;;;;6139827;28;84037;-67
2022/06/26 13:14:20;;;;;;;3.35;3.05;;;25.10;98.20;;;;;;6136742;28;82622;-67
2022/06/26 13:17:22;;;;;;;3.15;2.92;;;25.10;98.20;;;;;;6144479;28;84368;-67
2022/06/26 13:20:24;;;;;;;2.90;2.70;;;25.10;98.20;;;;;;6136421;28;83871;-67
2022/06/26 13:23:28;;;;;;;3.30;3.00;;;25.10;98.50;;;;;;6147379;28;84391;-67
2022/06/26 13:26:30;;;;;;;3.17;2.92;;;25.20;98.10;;;;;;6142770;28;83640;-67
2022/06/26 13:29:32;;;;;;;2.95;2.75;;;25.10;98.00;;;;;;6154274;28;84037;-67
2022/06/26 13:32:34;;;;;;;3.40;3.10;;;25.10;98.00;;;;;;6157034;28;82871;-67
2022/06/26 13:35:36;;;;;;;3.00;2.80;;;25.20;98.00;;;;;;6148335;28;85015;-67
2022/06/26 13:38:39;;;;;;;2.90;2.70;;;25.20;98.00;;;;;;6151789;28;84343;-67
2022/06/26 13:41:41;;;;;;;3.40;3.10;;;25.10;97.90;;;;;;6144725;28;84036;-67
2022/06/26 13:44:43;;;;;;;2.97;2.78;;;25.10;97.90;;;;;;6144575;28;84043;-67
2022/06/26 13:47:45;;;;;;;3.30;3.00;;;25.20;98.00;;;;;;6151091;28;84098;-67
2022/06/26 13:50:47;;;;;;;2.97;2.78;;;25.10;97.90;;;;;;6156687;28;84130;-67
2022/06/26 13:53:50;;;;;;;3.33;3.03;;;25.10;97.90;;;;;;6136389;28;84097;-66
2022/06/26 13:56:52;;;;;;;3.22;2.92;;;25.10;98.00;;;;;;6146796;28;83368;-67
2022/06/26 13:59:54;;;;;;;2.90;2.70;;;25.10;98.00;;;;;;6149421;28;84066;-67
2022/06/26 14:02:56;;;;;;;4.03;3.28;;;25.10;98.00;;;;;;6147773;28;84045;-67
2022/06/26 14:05:58;;;;;;;3.38;3.08;;;25.20;98.00;;;;;;6149952;28;85004;-67
2022/06/26 14:09:02;;;;;;;2.85;2.65;;;25.10;97.90;;;;;;6150426;28;84030;-67
2022/06/26 14:12:04;;;;;;;2.80;2.60;;;25.10;97.90;;;;;;6150230;28;84033;-67
2022/06/26 14:15:07;;;;;;;2.70;2.50;;;25.10;97.80;;;;;;6154510;28;84078;-67
2022/06/26 14:18:09;;;;;;;2.90;2.70;;;25.10;97.80;;;;;;6140741;28;82951;-67
2022/06/26 14:21:12;;;;;;;2.75;2.55;;;25.20;97.80;;;;;;6151713;28;84152;-67
2022/06/26 14:27:35;;;;;;;2.75;2.55;;;25.20;97.70;;;;;;6149284;28;81227;-67
2022/06/26 14:30:37;;;;;;;2.58;2.38;;;25.20;97.70;;;;;;6139357;28;83920;-67
2022/06/26 14:33:40;;;;;;;2.83;2.63;;;25.10;97.70;;;;;;6135197;28;82912;-67
2022/06/26 14:36:42;;;;;;;2.60;2.40;;;25.20;97.70;;;;;;6146745;28;84967;-67
2022/06/26 14:39:45;;;;;;;3.13;2.83;;;25.10;97.70;;;;;;6135216;28;84038;-67
2022/06/26 14:42:47;;;;;;;2.88;2.67;;;25.10;97.70;;;;;;6136470;28;83995;-67
2022/06/26 14:45:49;;;;;;;3.13;2.85;;;25.20;97.80;;;;;;6146219;28;84438;-68
2022/06/26 14:48:51;;;;;;;3.00;2.80;;;25.10;97.70;;;;;;6136192;28;83270;-67
2022/06/26 14:51:53;;;;;;;2.80;2.60;;;25.20;97.70;;;;;;6147847;28;84080;-67
2022/06/26 14:54:57;;;;;;;2.90;2.70;;;25.20;97.70;;;;;;6136283;28;84283;-67
2022/06/26 14:57:59;;;;;;;3.08;2.88;;;25.20;97.60;;;;;;6135383;28;83347;-67
2022/06/26 15:01:01;;;;;;;3.30;3.00;;;25.10;97.60;;;;;;6135571;28;84127;-67
2022/06/26 15:04:03;;;;;;;2.60;2.40;;;25.20;97.60;;;;;;6151836;28;84087;-67
2022/06/26 15:07:05;;;;;;;3.03;2.78;;;25.20;97.50;;;;;;6134126;28;84937;-67
2022/06/26 15:10:12;;;;;;;3.38;3.08;;;25.20;97.50;;;;;;6134486;28;82976;-67
2022/06/26 15:13:14;;;;;;;2.97;2.78;;;25.10;97.40;;;;;;6150319;28;84066;-67
2022/06/26 15:16:16;;;;;;;3.15;2.95;;;25.20;97.50;;;;;;6138623;28;84078;-67
2022/06/26 15:19:19;;;;;;;2.70;2.50;;;25.20;97.40;;;;;;6155751;28;82957;-67
2022/06/26 15:22:20;;;;;;;2.97;2.67;;;25.20;97.40;;;;;;6145462;28;84136;-67
2022/06/26 15:25:24;;;;;;;2.78;2.58;;;25.20;97.40;;;;;;6161901;28;82901;-67
2022/06/26 15:28:26;;;;;;;2.65;2.45;;;25.20;97.40;;;;;;6151959;28;83394;-67
2022/06/26 15:31:28;;;;;;;2.83;2.63;;;25.20;97.50;;;;;;6149721;28;84089;-66
2022/06/26 15:34:30;;;;;;;2.90;2.70;;;25.20;97.50;;;;;;6152700;28;84013;-67
2022/06/26 15:37:33;;;;;;;2.83;2.60;;;25.20;97.40;;;;;;6161787;28;85082;-67
2022/06/26 15:40:36;;;;;;;2.80;2.60;;;25.20;97.40;;;;;;6151722;28;84093;-67
2022/06/26 15:43:38;;;;;;;2.55;2.35;;;25.10;97.20;;;;;;6149247;28;82896;-67
2022/06/26 15:46:40;;;;;;;2.95;2.75;;;25.20;97.20;;;;;;6140127;28;84035;-67
2022/06/26 15:49:42;;;;;;;2.50;2.30;;;25.20;97.20;;;;;;6146278;28;84171;-67
2022/06/26 15:52:44;;;;;;;2.80;2.60;;;25.20;97.20;;;;;;6147721;28;84769;-67
2022/06/26 15:55:48;;;;;;;2.53;2.33;;;25.20;97.20;;;;;;6143929;28;84319;-67
2022/06/26 15:58:50;;;;;;;2.78;2.58;;;25.20;97.20;;;;;;6154166;28;83303;-67
2022/06/26 16:01:52;;;;;;;2.85;2.65;;;25.20;97.10;;;;;;6159729;28;83836;-67
2022/06/26 16:04:54;;;;;;;2.60;2.40;;;25.20;97.10;;;;;;6150206;28;84119;-67
2022/06/26 16:07:56;;;;;;;2.60;2.40;;;25.20;97.10;;;;;;6148293;28;84395;-67
2022/06/26 16:11:03;;;;;;;2.40;2.20;;;25.10;97.10;;;;;;6145882;28;84366;-68
2022/06/26 16:14:05;;;;;;;2.60;2.40;;;25.20;97.30;;;;;;6141391;28;84572;-67